sensor_id;sensor_type;location;lat;lon;timestamp;temperature;humidity
25554;DHT22;13446;50.926;5.332;2023-11-21T00:02:22;10.40;99.90
25554;DHT22;13446;50.926;5.332;2023-11-21T00:04:49;10.40;99.90
25554;DHT22;13446;50.926;5.332;2023-11-21T00:07:15;10.50;99.90
25554;DHT22;13446;50.926;5.332;2023-11-21T00:09:41;10.60;99.90
25554;DHT22;13446;50.926;5.332;2023-11-21T00:12:08;10.60;99.90
25554;DHT22;13446;50.926;5.332;2023-11-21T00:14:40;10.50;99.90
25554;DHT22;13446;50.926;5.332;2023-11-21T00:17:06;10.40;99.90
25554;DHT22;13446;50.926;5.332;2023-11-21T00:19:32;10.40;99.90
25554;DHT22;13446;50.926;5.332;2023-11-21T00:21:58;10.50;99.90
25554;DHT22;13446;50.926;5.332;2023-11-21T00:24:25;10.50;99.90
25554;DHT22;13446;50.926;5.332;2023-11-21T00:26:51;10.50;99.90
25554;DHT22;13446;50.926;5.332;2023-11-21T00:29:25;10.60;99.90
25554;DHT22;13446;50.926;5.332;2023-11-21T00:31:58;10.50;99.90
25554;DHT22;13446;50.926;5.332;2023-11-21T00:34:36;10.60;99.90
25554;DHT22;13446;50.926;5.332;2023-11-21T00:37:05;10.60;99.90
25554;DHT22;13446;50.926;5.332;2023-11-21T00:39:31;10.50;99.90
25554;DHT22;13446;50.926;5.332;2023-11-21T00:41:58;10.50;99.90
25554;DHT22;13446;50.926;5.332;2023-11-21T00:44:27;10.50;99.90
25554;DHT22;13446;50.926;5.332;2023-11-21T00:46:52;10.60;99.90
25554;DHT22;13446;50.926;5.332;2023-11-21T00:49:19;10.70;99.90
25554;DHT22;13446;50.926;5.332;2023-11-21T00:51:46;10.70;99.90
25554;DHT22;13446;50.926;5.332;2023-11-21T00:54:12;10.70;99.90
25554;DHT22;13446;50.926;5.332;2023-11-21T00:56:37;10.70;99.90
25554;DHT22;13446;50.926;5.332;2023-11-21T00:59:06;10.60;99.90
25554;DHT22;13446;50.926;5.332;2023-11-21T01:01:32;10.60;99.90
25554;DHT22;13446;50.926;5.332;2023-11-21T01:03:58;10.60;99.90
25554;DHT22;13446;50.926;5.332;2023-11-21T01:06:23;10.60;99.90
25554;DHT22;13446;50.926;5.332;2023-11-21T01:08:49;10.60;99.90
25554;DHT22;13446;50.926;5.332;2023-11-21T01:11:15;10.70;99.90
25554;DHT22;13446;50.926;5.332;2023-11-21T01:13:41;10.80;99.90
25554;DHT22;13446;50.926;5.332;2023-11-21T01:16:08;10.70;99.90
25554;DHT22;13446;50.926;5.332;2023-11-21T01:18:35;10.70;99.90
25554;DHT22;13446;50.926;5.332;2023-11-21T01:21:00;10.80;99.90
25554;DHT22;13446;50.926;5.332;2023-11-21T01:23:27;10.70;99.90
25554;DHT22;13446;50.926;5.332;2023-11-21T01:25:53;10.90;99.90
25554;DHT22;13446;50.926;5.332;2023-11-21T01:28:20;10.80;99.90
25554;DHT22;13446;50.926;5.332;2023-11-21T01:30:46;10.70;99.90
25554;DHT22;13446;50.926;5.332;2023-11-21T01:33:12;10.60;99.90
25554;DHT22;13446;50.926;5.332;2023-11-21T01:35:37;10.70;99.90
25554;DHT22;13446;50.926;5.332;2023-11-21T01:38:03;10.70;99.90
25554;DHT22;13446;50.926;5.332;2023-11-21T01:40:29;10.70;99.90
25554;DHT22;13446;50.926;5.332;2023-11-21T01:42:55;10.80;99.90
25554;DHT22;13446;50.926;5.332;2023-11-21T01:45:23;10.80;99.90
25554;DHT22;13446;50.926;5.332;2023-11-21T01:47:50;10.90;99.90
25554;DHT22;13446;50.926;5.332;2023-11-21T01:50:17;10.80;99.90
25554;DHT22;13446;50.926;5.332;2023-11-21T01:52:45;10.70;99.90
25554;DHT22;13446;50.926;5.332;2023-11-21T01:55:11;10.80;99.90
25554;DHT22;13446;50.926;5.332;2023-11-21T01:57:40;10.80;99.90
25554;DHT22;13446;50.926;5.332;2023-11-21T02:00:06;10.90;99.90
25554;DHT22;13446;50.926;5.332;2023-11-21T02:02:44;11.00;99.90
25554;DHT22;13446;50.926;5.332;2023-11-21T02:05:17;10.90;99.90
25554;DHT22;13446;50.926;5.332;2023-11-21T02:07:44;10.90;99.90
25554;DHT22;13446;50.926;5.332;2023-11-21T02:12:54;11.00;99.90
25554;DHT22;13446;50.926;5.332;2023-11-21T02:15:21;10.90;99.90
25554;DHT22;13446;50.926;5.332;2023-11-21T02:17:49;10.90;99.90
25554;DHT22;13446;50.926;5.332;2023-11-21T02:20:17;10.90;99.90
25554;DHT22;13446;50.926;5.332;2023-11-21T02:25:28;10.90;99.90
25554;DHT22;13446;50.926;5.332;2023-11-21T02:27:55;10.80;99.90
25554;DHT22;13446;50.926;5.332;2023-11-21T02:30:22;10.80;99.90
25554;DHT22;13446;50.926;5.332;2023-11-21T02:32:51;10.90;99.90
25554;DHT22;13446;50.926;5.332;2023-11-21T02:35:23;10.90;99.90
25554;DHT22;13446;50.926;5.332;2023-11-21T02:37:52;10.90;99.90
25554;DHT22;13446;50.926;5.332;2023-11-21T02:40:18;10.80;99.90
25554;DHT22;13446;50.926;5.332;2023-11-21T02:42:44;10.80;99.90
25554;DHT22;13446;50.926;5.332;2023-11-21T02:45:10;10.80;99.90
25554;DHT22;13446;50.926;5.332;2023-11-21T02:47:41;10.80;99.90
25554;DHT22;13446;50.926;5.332;2023-11-21T02:50:07;10.80;99.90
25554;DHT22;13446;50.926;5.332;2023-11-21T02:52:34;10.80;99.90
25554;DHT22;13446;50.926;5.332;2023-11-21T02:55:04;10.90;99.90
25554;DHT22;13446;50.926;5.332;2023-11-21T02:57:30;10.90;99.90
25554;DHT22;13446;50.926;5.332;2023-11-21T02:59:56;10.90;99.90
25554;DHT22;13446;50.926;5.332;2023-11-21T03:02:21;10.90;99.90
25554;DHT22;13446;50.926;5.332;2023-11-21T03:04:47;10.90;99.90
25554;DHT22;13446;50.926;5.332;2023-11-21T03:07:15;10.70;99.90
25554;DHT22;13446;50.926;5.332;2023-11-21T03:09:43;10.70;99.90
25554;DHT22;13446;50.926;5.332;2023-11-21T03:12:10;10.80;99.90
25554;DHT22;13446;50.926;5.332;2023-11-21T03:14:37;10.80;99.90
25554;DHT22;13446;50.926;5.332;2023-11-21T03:17:03;10.90;99.90
25554;DHT22;13446;50.926;5.332;2023-11-21T03:19:30;10.90;99.90
25554;DHT22;13446;50.926;5.332;2023-11-21T03:21:56;10.90;99.90
25554;DHT22;13446;50.926;5.332;2023-11-21T03:24:22;10.90;99.90
25554;DHT22;13446;50.926;5.332;2023-11-21T03:26:48;10.90;99.90
25554;DHT22;13446;50.926;5.332;2023-11-21T03:29:14;10.90;99.90
25554;DHT22;13446;50.926;5.332;2023-11-21T03:31:40;10.90;99.90
25554;DHT22;13446;50.926;5.332;2023-11-21T03:34:06;10.80;99.90
25554;DHT22;13446;50.926;5.332;2023-11-21T03:36:32;10.80;99.90
25554;DHT22;13446;50.926;5.332;2023-11-21T03:38:58;10.90;99.90
25554;DHT22;13446;50.926;5.332;2023-11-21T03:41:23;11.00;99.90
25554;DHT22;13446;50.926;5.332;2023-11-21T03:43:49;10.80;99.90
25554;DHT22;13446;50.926;5.332;2023-11-21T03:46:15;10.90;99.90
25554;DHT22;13446;50.926;5.332;2023-11-21T03:48:40;10.90;99.90
25554;DHT22;13446;50.926;5.332;2023-11-21T03:51:07;10.90;99.90
25554;DHT22;13446;50.926;5.332;2023-11-21T03:53:33;11.00;99.90
25554;DHT22;13446;50.926;5.332;2023-11-21T03:55:58;11.00;99.90
25554;DHT22;13446;50.926;5.332;2023-11-21T03:58:24;11.00;99.90
25554;DHT22;13446;50.926;5.332;2023-11-21T04:00:50;10.90;99.90
25554;DHT22;13446;50.926;5.332;2023-11-21T04:03:15;10.80;99.90
25554;DHT22;13446;50.926;5.332;2023-11-21T04:05:41;10.80;99.90
25554;DHT22;13446;50.926;5.332;2023-11-21T04:08:07;10.80;99.90
25554;DHT22;13446;50.926;5.332;2023-11-21T04:10:33;10.80;99.90
25554;DHT22;13446;50.926;5.332;2023-11-21T04:12:58;10.90;99.90
25554;DHT22;13446;50.926;5.332;2023-11-21T04:15:25;10.80;99.90
25554;DHT22;13446;50.926;5.332;2023-11-21T04:17:51;10.70;99.90
25554;DHT22;13446;50.926;5.332;2023-11-21T04:20:17;10.60;99.90
25554;DHT22;13446;50.926;5.332;2023-11-21T04:22:44;10.70;99.90
25554;DHT22;13446;50.926;5.332;2023-11-21T04:25:10;10.80;99.90
25554;DHT22;13446;50.926;5.332;2023-11-21T04:27:38;10.90;99.90
25554;DHT22;13446;50.926;5.332;2023-11-21T04:30:05;10.80;99.90
25554;DHT22;13446;50.926;5.332;2023-11-21T04:32:31;10.70;99.90
25554;DHT22;13446;50.926;5.332;2023-11-21T04:34:56;10.60;99.90
25554;DHT22;13446;50.926;5.332;2023-11-21T04:37:22;10.70;99.90
25554;DHT22;13446;50.926;5.332;2023-11-21T04:40:01;10.80;99.90
25554;DHT22;13446;50.926;5.332;2023-11-21T04:42:36;10.80;99.90
25554;DHT22;13446;50.926;5.332;2023-11-21T04:45:14;10.70;99.90
25554;DHT22;13446;50.926;5.332;2023-11-21T04:47:40;10.70;99.90
25554;DHT22;13446;50.926;5.332;2023-11-21T04:50:06;10.60;99.90
25554;DHT22;13446;50.926;5.332;2023-11-21T04:52:32;10.50;99.90
25554;DHT22;13446;50.926;5.332;2023-11-21T04:54:58;10.60;99.90
25554;DHT22;13446;50.926;5.332;2023-11-21T04:57:26;10.60;99.90
25554;DHT22;13446;50.926;5.332;2023-11-21T04:59:54;10.70;99.90
25554;DHT22;13446;50.926;5.332;2023-11-21T05:02:28;10.80;99.90
25554;DHT22;13446;50.926;5.332;2023-11-21T05:04:54;10.80;99.90
25554;DHT22;13446;50.926;5.332;2023-11-21T05:07:21;10.70;99.90
25554;DHT22;13446;50.926;5.332;2023-11-21T05:09:47;10.80;99.90
25554;DHT22;13446;50.926;5.332;2023-11-21T05:12:13;10.70;99.90
25554;DHT22;13446;50.926;5.332;2023-11-21T05:14:40;10.70;99.90
25554;DHT22;13446;50.926;5.332;2023-11-21T05:17:05;10.70;99.90
25554;DHT22;13446;50.926;5.332;2023-11-21T05:19:33;10.70;99.90
25554;DHT22;13446;50.926;5.332;2023-11-21T05:22:00;10.70;99.90
25554;DHT22;13446;50.926;5.332;2023-11-21T05:24:26;10.70;99.90
25554;DHT22;13446;50.926;5.332;2023-11-21T05:26:52;10.70;99.90
25554;DHT22;13446;50.926;5.332;2023-11-21T05:29:18;10.60;99.90
25554;DHT22;13446;50.926;5.332;2023-11-21T05:31:44;10.50;99.90
25554;DHT22;13446;50.926;5.332;2023-11-21T05:34:09;10.40;99.90
25554;DHT22;13446;50.926;5.332;2023-11-21T05:36:35;10.50;99.90
25554;DHT22;13446;50.926;5.332;2023-11-21T05:39:01;10.60;99.90
25554;DHT22;13446;50.926;5.332;2023-11-21T05:41:28;10.70;99.90
25554;DHT22;13446;50.926;5.332;2023-11-21T05:43:54;10.60;99.90
25554;DHT22;13446;50.926;5.332;2023-11-21T05:46:21;10.60;99.90
25554;DHT22;13446;50.926;5.332;2023-11-21T05:48:47;10.60;99.90
25554;DHT22;13446;50.926;5.332;2023-11-21T05:51:12;10.60;99.90
25554;DHT22;13446;50.926;5.332;2023-11-21T05:53:39;10.60;99.90
25554;DHT22;13446;50.926;5.332;2023-11-21T05:56:05;10.50;99.90
25554;DHT22;13446;50.926;5.332;2023-11-21T05:58:31;10.40;99.90
25554;DHT22;13446;50.926;5.332;2023-11-21T06:00:57;10.50;99.90
25554;DHT22;13446;50.926;5.332;2023-11-21T06:03:23;10.60;99.90
25554;DHT22;13446;50.926;5.332;2023-11-21T06:05:48;10.60;99.90
25554;DHT22;13446;50.926;5.332;2023-11-21T06:08:14;10.70;99.90
25554;DHT22;13446;50.926;5.332;2023-11-21T06:10:42;10.60;99.90
25554;DHT22;13446;50.926;5.332;2023-11-21T06:13:12;10.60;99.90
25554;DHT22;13446;50.926;5.332;2023-11-21T06:15:38;10.60;99.90
25554;DHT22;13446;50.926;5.332;2023-11-21T06:18:04;10.60;99.90
25554;DHT22;13446;50.926;5.332;2023-11-21T06:20:35;10.60;99.90
25554;DHT22;13446;50.926;5.332;2023-11-21T06:23:05;10.50;99.90
25554;DHT22;13446;50.926;5.332;2023-11-21T06:25:31;10.50;99.90
25554;DHT22;13446;50.926;5.332;2023-11-21T06:28:01;10.50;99.90
25554;DHT22;13446;50.926;5.332;2023-11-21T06:30:27;10.60;99.90
25554;DHT22;13446;50.926;5.332;2023-11-21T06:32:54;10.60;99.90
25554;DHT22;13446;50.926;5.332;2023-11-21T06:35:21;10.50;99.90
25554;DHT22;13446;50.926;5.332;2023-11-21T06:37:47;10.60;99.90
25554;DHT22;13446;50.926;5.332;2023-11-21T06:40:37;10.60;99.90
25554;DHT22;13446;50.926;5.332;2023-11-21T06:43:03;10.70;99.90
25554;DHT22;13446;50.926;5.332;2023-11-21T06:45:46;10.60;99.90
25554;DHT22;13446;50.926;5.332;2023-11-21T06:48:23;10.70;99.90
25554;DHT22;13446;50.926;5.332;2023-11-21T06:50:55;10.70;99.90
25554;DHT22;13446;50.926;5.332;2023-11-21T06:53:27;10.60;99.90
25554;DHT22;13446;50.926;5.332;2023-11-21T06:55:56;10.50;99.90
25554;DHT22;13446;50.926;5.332;2023-11-21T06:58:33;10.60;99.90
25554;DHT22;13446;50.926;5.332;2023-11-21T07:00:59;10.70;99.90
25554;DHT22;13446;50.926;5.332;2023-11-21T07:05:57;10.70;99.90
25554;DHT22;13446;50.926;5.332;2023-11-21T07:08:38;10.70;99.90
25554;DHT22;13446;50.926;5.332;2023-11-21T07:11:13;10.80;99.90
25554;DHT22;13446;50.926;5.332;2023-11-21T07:13:38;10.70;99.90
25554;DHT22;13446;50.926;5.332;2023-11-21T07:18:29;10.70;99.90
25554;DHT22;13446;50.926;5.332;2023-11-21T07:20:56;10.70;99.90
25554;DHT22;13446;50.926;5.332;2023-11-21T07:23:39;10.70;99.90
25554;DHT22;13446;50.926;5.332;2023-11-21T07:26:05;10.90;99.90
25554;DHT22;13446;50.926;5.332;2023-11-21T07:28:34;10.90;99.90
25554;DHT22;13446;50.926;5.332;2023-11-21T07:31:13;10.90;99.90
25554;DHT22;13446;50.926;5.332;2023-11-21T07:33:48;10.90;99.90
25554;DHT22;13446;50.926;5.332;2023-11-21T07:36:15;10.90;99.90
25554;DHT22;13446;50.926;5.332;2023-11-21T07:38:44;11.00;99.90
25554;DHT22;13446;50.926;5.332;2023-11-21T07:41:11;11.00;99.90
25554;DHT22;13446;50.926;5.332;2023-11-21T07:43:41;11.00;99.90
25554;DHT22;13446;50.926;5.332;2023-11-21T07:46:22;11.00;99.90
25554;DHT22;13446;50.926;5.332;2023-11-21T07:48:55;11.10;99.90
25554;DHT22;13446;50.926;5.332;2023-11-21T07:51:21;11.00;99.90
25554;DHT22;13446;50.926;5.332;2023-11-21T07:53:47;11.00;99.90
25554;DHT22;13446;50.926;5.332;2023-11-21T07:56:25;11.00;99.90
25554;DHT22;13446;50.926;5.332;2023-11-21T07:58:51;11.10;99.90
25554;DHT22;13446;50.926;5.332;2023-11-21T08:01:16;11.10;99.90
25554;DHT22;13446;50.926;5.332;2023-11-21T08:03:42;11.10;99.90
25554;DHT22;13446;50.926;5.332;2023-11-21T08:06:15;11.10;99.90
25554;DHT22;13446;50.926;5.332;2023-11-21T08:08:41;11.10;99.90
25554;DHT22;13446;50.926;5.332;2023-11-21T08:11:06;11.00;99.90
25554;DHT22;13446;50.926;5.332;2023-11-21T08:13:33;11.10;99.90
25554;DHT22;13446;50.926;5.332;2023-11-21T08:16:00;11.00;99.90
25554;DHT22;13446;50.926;5.332;2023-11-21T08:18:42;11.00;99.90
25554;DHT22;13446;50.926;5.332;2023-11-21T08:21:12;10.90;99.90
25554;DHT22;13446;50.926;5.332;2023-11-21T08:23:37;11.00;99.90
25554;DHT22;13446;50.926;5.332;2023-11-21T08:26:05;11.10;99.90
25554;DHT22;13446;50.926;5.332;2023-11-21T08:28:30;11.20;99.90
25554;DHT22;13446;50.926;5.332;2023-11-21T08:30:56;11.20;99.90
25554;DHT22;13446;50.926;5.332;2023-11-21T08:33:22;11.30;99.90
25554;DHT22;13446;50.926;5.332;2023-11-21T08:35:48;11.30;99.90
25554;DHT22;13446;50.926;5.332;2023-11-21T08:38:14;11.30;99.90
25554;DHT22;13446;50.926;5.332;2023-11-21T08:40:40;11.40;99.90
25554;DHT22;13446;50.926;5.332;2023-11-21T08:43:06;11.50;99.90
25554;DHT22;13446;50.926;5.332;2023-11-21T08:45:32;11.60;99.90
25554;DHT22;13446;50.926;5.332;2023-11-21T08:48:00;11.60;99.90
25554;DHT22;13446;50.926;5.332;2023-11-21T08:50:29;11.60;99.90
25554;DHT22;13446;50.926;5.332;2023-11-21T08:53:01;11.40;99.90
25554;DHT22;13446;50.926;5.332;2023-11-21T08:55:32;11.50;99.90
25554;DHT22;13446;50.926;5.332;2023-11-21T08:58:02;11.60;99.90
25554;DHT22;13446;50.926;5.332;2023-11-21T09:00:31;11.40;99.90
25554;DHT22;13446;50.926;5.332;2023-11-21T09:02:57;11.30;99.90
25554;DHT22;13446;50.926;5.332;2023-11-21T09:05:39;11.30;99.90
25554;DHT22;13446;50.926;5.332;2023-11-21T09:08:20;11.40;99.90
25554;DHT22;13446;50.926;5.332;2023-11-21T09:10:47;11.60;99.90
25554;DHT22;13446;50.926;5.332;2023-11-21T09:13:15;11.60;99.90
25554;DHT22;13446;50.926;5.332;2023-11-21T09:15:42;11.50;99.90
25554;DHT22;13446;50.926;5.332;2023-11-21T09:18:32;11.60;99.90
25554;DHT22;13446;50.926;5.332;2023-11-21T09:21:03;11.70;99.90
25554;DHT22;13446;50.926;5.332;2023-11-21T09:23:29;11.90;99.90
25554;DHT22;13446;50.926;5.332;2023-11-21T09:25:58;11.90;99.90
25554;DHT22;13446;50.926;5.332;2023-11-21T09:28:29;12.00;99.90
25554;DHT22;13446;50.926;5.332;2023-11-21T09:31:07;12.10;99.90
25554;DHT22;13446;50.926;5.332;2023-11-21T09:33:35;12.10;99.90
25554;DHT22;13446;50.926;5.332;2023-11-21T09:36:11;12.00;99.90
25554;DHT22;13446;50.926;5.332;2023-11-21T09:38:39;12.20;99.90
25554;DHT22;13446;50.926;5.332;2023-11-21T09:41:06;12.30;99.90
25554;DHT22;13446;50.926;5.332;2023-11-21T09:43:54;12.20;99.90
25554;DHT22;13446;50.926;5.332;2023-11-21T09:46:35;12.20;99.90
25554;DHT22;13446;50.926;5.332;2023-11-21T09:49:13;12.30;99.90
25554;DHT22;13446;50.926;5.332;2023-11-21T09:55:06;12.50;99.90
25554;DHT22;13446;50.926;5.332;2023-11-21T09:57:45;12.30;99.90
25554;DHT22;13446;50.926;5.332;2023-11-21T10:00:19;12.40;99.90
25554;DHT22;13446;50.926;5.332;2023-11-21T10:02:58;12.50;99.90
25554;DHT22;13446;50.926;5.332;2023-11-21T10:05:33;12.50;99.90
25554;DHT22;13446;50.926;5.332;2023-11-21T10:08:18;12.50;99.90
25554;DHT22;13446;50.926;5.332;2023-11-21T10:10:47;12.70;99.90
25554;DHT22;13446;50.926;5.332;2023-11-21T10:13:15;12.60;99.90
25554;DHT22;13446;50.926;5.332;2023-11-21T10:15:44;12.80;99.90
25554;DHT22;13446;50.926;5.332;2023-11-21T10:18:26;12.60;99.90
25554;DHT22;13446;50.926;5.332;2023-11-21T10:21:14;12.80;99.90
25554;DHT22;13446;50.926;5.332;2023-11-21T10:23:43;12.80;99.90
25554;DHT22;13446;50.926;5.332;2023-11-21T10:26:22;12.50;99.90
25554;DHT22;13446;50.926;5.332;2023-11-21T10:29:08;12.40;99.90
25554;DHT22;13446;50.926;5.332;2023-11-21T10:34:16;12.10;99.90
25554;DHT22;13446;50.926;5.332;2023-11-21T10:37:04;12.30;99.90
25554;DHT22;13446;50.926;5.332;2023-11-21T10:39:39;12.40;99.90
25554;DHT22;13446;50.926;5.332;2023-11-21T10:42:04;12.50;99.90
25554;DHT22;13446;50.926;5.332;2023-11-21T10:45:01;12.20;99.90
25554;DHT22;13446;50.926;5.332;2023-11-21T10:47:43;12.20;99.90
25554;DHT22;13446;50.926;5.332;2023-11-21T10:50:24;12.40;99.90
25554;DHT22;13446;50.926;5.332;2023-11-21T10:53:05;12.30;99.90
25554;DHT22;13446;50.926;5.332;2023-11-21T10:55:36;12.60;99.90
25554;DHT22;13446;50.926;5.332;2023-11-21T11:00:47;12.70;99.90
25554;DHT22;13446;50.926;5.332;2023-11-21T11:03:22;12.50;99.90
25554;DHT22;13446;50.926;5.332;2023-11-21T11:05:49;12.60;99.90
25554;DHT22;13446;50.926;5.332;2023-11-21T11:08:23;12.70;99.90
25554;DHT22;13446;50.926;5.332;2023-11-21T11:10:52;12.80;99.90
25554;DHT22;13446;50.926;5.332;2023-11-21T11:13:18;12.50;99.90
25554;DHT22;13446;50.926;5.332;2023-11-21T11:15:59;12.50;99.90
25554;DHT22;13446;50.926;5.332;2023-11-21T11:18:26;12.40;99.90
25554;DHT22;13446;50.926;5.332;2023-11-21T11:20:52;12.20;99.90
25554;DHT22;13446;50.926;5.332;2023-11-21T11:23:42;12.30;99.90
25554;DHT22;13446;50.926;5.332;2023-11-21T11:26:31;12.60;99.90
25554;DHT22;13446;50.926;5.332;2023-11-21T11:29:55;12.40;99.90
25554;DHT22;13446;50.926;5.332;2023-11-21T11:38:05;12.00;99.90
25554;DHT22;13446;50.926;5.332;2023-11-21T11:40:52;12.10;99.90
25554;DHT22;13446;50.926;5.332;2023-11-21T11:47:22;12.10;99.90
25554;DHT22;13446;50.926;5.332;2023-11-21T11:50:21;12.30;99.90
25554;DHT22;13446;50.926;5.332;2023-11-21T11:53:18;12.60;99.90
25554;DHT22;13446;50.926;5.332;2023-11-21T11:55:45;12.80;99.90
25554;DHT22;13446;50.926;5.332;2023-11-21T11:58:14;12.80;99.90
25554;DHT22;13446;50.926;5.332;2023-11-21T12:00:58;12.70;99.90
25554;DHT22;13446;50.926;5.332;2023-11-21T12:03:39;12.80;99.90
25554;DHT22;13446;50.926;5.332;2023-11-21T12:06:05;13.00;99.90
25554;DHT22;13446;50.926;5.332;2023-11-21T12:08:32;12.70;99.90
25554;DHT22;13446;50.926;5.332;2023-11-21T12:11:01;12.70;99.90
25554;DHT22;13446;50.926;5.332;2023-11-21T12:13:28;12.60;99.90
25554;DHT22;13446;50.926;5.332;2023-11-21T12:15:54;12.50;99.90
25554;DHT22;13446;50.926;5.332;2023-11-21T12:18:21;12.60;99.90
25554;DHT22;13446;50.926;5.332;2023-11-21T12:20:48;12.90;99.90
25554;DHT22;13446;50.926;5.332;2023-11-21T12:23:36;13.00;99.90
25554;DHT22;13446;50.926;5.332;2023-11-21T12:26:23;12.80;99.90
25554;DHT22;13446;50.926;5.332;2023-11-21T12:28:53;12.90;99.90
25554;DHT22;13446;50.926;5.332;2023-11-21T12:31:31;12.80;99.90
25554;DHT22;13446;50.926;5.332;2023-11-21T12:34:14;12.90;99.90
25554;DHT22;13446;50.926;5.332;2023-11-21T12:36:46;13.00;99.90
25554;DHT22;13446;50.926;5.332;2023-11-21T12:39:12;13.10;99.90
25554;DHT22;13446;50.926;5.332;2023-11-21T12:41:38;13.20;99.90
25554;DHT22;13446;50.926;5.332;2023-11-21T12:44:11;13.20;99.90
25554;DHT22;13446;50.926;5.332;2023-11-21T12:46:43;13.20;99.90
25554;DHT22;13446;50.926;5.332;2023-11-21T12:49:12;12.90;99.90
25554;DHT22;13446;50.926;5.332;2023-11-21T12:54:30;13.00;99.90
25554;DHT22;13446;50.926;5.332;2023-11-21T12:56:59;12.90;99.90
25554;DHT22;13446;50.926;5.332;2023-11-21T12:59:25;12.90;99.90
25554;DHT22;13446;50.926;5.332;2023-11-21T13:02:16;13.00;99.90
25554;DHT22;13446;50.926;5.332;2023-11-21T13:04:54;13.10;99.90
25554;DHT22;13446;50.926;5.332;2023-11-21T13:07:23;13.20;99.90
25554;DHT22;13446;50.926;5.332;2023-11-21T13:09:52;13.40;99.90
25554;DHT22;13446;50.926;5.332;2023-11-21T13:12:24;13.60;99.90
25554;DHT22;13446;50.926;5.332;2023-11-21T13:14:50;13.50;99.90
25554;DHT22;13446;50.926;5.332;2023-11-21T13:17:17;13.50;99.90
25554;DHT22;13446;50.926;5.332;2023-11-21T13:19:52;13.50;99.90
25554;DHT22;13446;50.926;5.332;2023-11-21T13:22:20;13.40;99.90
25554;DHT22;13446;50.926;5.332;2023-11-21T13:27:37;13.30;99.90
25554;DHT22;13446;50.926;5.332;2023-11-21T13:30:16;13.40;99.90
25554;DHT22;13446;50.926;5.332;2023-11-21T13:33:03;13.40;99.90
25554;DHT22;13446;50.926;5.332;2023-11-21T13:35:44;13.50;99.90
25554;DHT22;13446;50.926;5.332;2023-11-21T13:38:16;13.40;99.90
25554;DHT22;13446;50.926;5.332;2023-11-21T13:40:55;13.40;99.90
25554;DHT22;13446;50.926;5.332;2023-11-21T13:43:41;13.50;99.90
25554;DHT22;13446;50.926;5.332;2023-11-21T13:46:11;13.40;99.90
25554;DHT22;13446;50.926;5.332;2023-11-21T13:48:46;13.40;99.90
25554;DHT22;13446;50.926;5.332;2023-11-21T13:51:22;13.50;99.90
25554;DHT22;13446;50.926;5.332;2023-11-21T13:53:56;13.40;99.90
25554;DHT22;13446;50.926;5.332;2023-11-21T13:56:24;13.30;99.90
25554;DHT22;13446;50.926;5.332;2023-11-21T13:58:53;13.30;99.90
25554;DHT22;13446;50.926;5.332;2023-11-21T14:01:22;13.30;99.90
25554;DHT22;13446;50.926;5.332;2023-11-21T14:04:18;13.30;99.90
25554;DHT22;13446;50.926;5.332;2023-11-21T14:06:55;13.40;99.90
25554;DHT22;13446;50.926;5.332;2023-11-21T14:09:22;13.40;99.90
25554;DHT22;13446;50.926;5.332;2023-11-21T14:12:02;13.30;99.90
25554;DHT22;13446;50.926;5.332;2023-11-21T14:14:31;13.20;99.90
25554;DHT22;13446;50.926;5.332;2023-11-21T14:16:58;13.10;99.90
25554;DHT22;13446;50.926;5.332;2023-11-21T14:19:33;13.10;99.90
25554;DHT22;13446;50.926;5.332;2023-11-21T14:22:02;13.20;99.90
25554;DHT22;13446;50.926;5.332;2023-11-21T14:24:32;13.20;99.90
25554;DHT22;13446;50.926;5.332;2023-11-21T14:26:58;13.10;99.90
25554;DHT22;13446;50.926;5.332;2023-11-21T14:29:39;12.90;99.90
25554;DHT22;13446;50.926;5.332;2023-11-21T14:32:14;13.00;99.90
25554;DHT22;13446;50.926;5.332;2023-11-21T14:34:59;12.90;99.90
25554;DHT22;13446;50.926;5.332;2023-11-21T14:37:43;13.10;99.90
25554;DHT22;13446;50.926;5.332;2023-11-21T14:40:10;13.00;99.90
25554;DHT22;13446;50.926;5.332;2023-11-21T14:42:36;12.90;99.90
25554;DHT22;13446;50.926;5.332;2023-11-21T14:45:26;12.90;99.90
25554;DHT22;13446;50.926;5.332;2023-11-21T14:47:54;13.10;99.90
25554;DHT22;13446;50.926;5.332;2023-11-21T14:50:36;13.00;99.90
25554;DHT22;13446;50.926;5.332;2023-11-21T14:53:31;13.10;99.90
25554;DHT22;13446;50.926;5.332;2023-11-21T14:56:23;13.00;99.90
25554;DHT22;13446;50.926;5.332;2023-11-21T14:59:01;13.10;99.90
25554;DHT22;13446;50.926;5.332;2023-11-21T15:01:57;13.10;99.90
25554;DHT22;13446;50.926;5.332;2023-11-21T15:04:31;13.00;99.90
25554;DHT22;13446;50.926;5.332;2023-11-21T15:07:17;12.90;99.90
25554;DHT22;13446;50.926;5.332;2023-11-21T15:09:49;13.00;99.90
25554;DHT22;13446;50.926;5.332;2023-11-21T15:12:15;13.00;99.90
25554;DHT22;13446;50.926;5.332;2023-11-21T15:14:43;12.90;99.90
25554;DHT22;13446;50.926;5.332;2023-11-21T15:17:11;12.80;99.90
25554;DHT22;13446;50.926;5.332;2023-11-21T15:19:41;12.90;99.90
25554;DHT22;13446;50.926;5.332;2023-11-21T15:22:08;12.70;99.90
25554;DHT22;13446;50.926;5.332;2023-11-21T15:24:55;12.70;99.90
25554;DHT22;13446;50.926;5.332;2023-11-21T15:27:32;12.80;99.90
25554;DHT22;13446;50.926;5.332;2023-11-21T15:29:59;12.70;99.90
25554;DHT22;13446;50.926;5.332;2023-11-21T15:32:25;12.60;99.90
25554;DHT22;13446;50.926;5.332;2023-11-21T15:34:51;12.60;99.90
25554;DHT22;13446;50.926;5.332;2023-11-21T15:37:17;12.60;99.90
25554;DHT22;13446;50.926;5.332;2023-11-21T15:39:42;12.60;99.90
25554;DHT22;13446;50.926;5.332;2023-11-21T15:42:09;12.60;99.90
25554;DHT22;13446;50.926;5.332;2023-11-21T15:44:35;12.50;99.90
25554;DHT22;13446;50.926;5.332;2023-11-21T15:47:02;12.50;99.90
25554;DHT22;13446;50.926;5.332;2023-11-21T15:49:34;12.60;99.90
25554;DHT22;13446;50.926;5.332;2023-11-21T15:52:21;12.50;99.90
25554;DHT22;13446;50.926;5.332;2023-11-21T15:55:02;12.50;99.90
25554;DHT22;13446;50.926;5.332;2023-11-21T15:57:28;12.50;99.90
25554;DHT22;13446;50.926;5.332;2023-11-21T15:59:54;12.50;99.90
25554;DHT22;13446;50.926;5.332;2023-11-21T16:02:20;12.40;99.90
25554;DHT22;13446;50.926;5.332;2023-11-21T16:04:48;12.40;99.90
25554;DHT22;13446;50.926;5.332;2023-11-21T16:07:14;12.30;99.90
25554;DHT22;13446;50.926;5.332;2023-11-21T16:09:58;12.30;99.90
25554;DHT22;13446;50.926;5.332;2023-11-21T16:12:27;12.30;99.90
25554;DHT22;13446;50.926;5.332;2023-11-21T16:15:02;12.40;99.90
25554;DHT22;13446;50.926;5.332;2023-11-21T16:17:39;12.40;99.90
25554;DHT22;13446;50.926;5.332;2023-11-21T16:20:07;12.30;99.90
25554;DHT22;13446;50.926;5.332;2023-11-21T16:22:38;12.10;99.90
25554;DHT22;13446;50.926;5.332;2023-11-21T16:25:22;12.10;99.90
25554;DHT22;13446;50.926;5.332;2023-11-21T16:28:00;12.10;99.90